sensor_id;sensor_type;location;lat;lon;timestamp;temperature;humidity
31309;DHT22;17936;52.446;10.840;2022-08-21T00:00:42;17.00;99.90
31309;DHT22;17936;52.446;10.840;2022-08-21T00:03:10;17.10;99.90
31309;DHT22;17936;52.446;10.840;2022-08-21T00:05:40;17.30;99.90
31309;DHT22;17936;52.446;10.840;2022-08-21T00:08:06;16.80;99.90
31309;DHT22;17936;52.446;10.840;2022-08-21T00:10:32;17.00;99.90
31309;DHT22;17936;52.446;10.840;2022-08-21T00:12:59;17.00;99.90
31309;DHT22;17936;52.446;10.840;2022-08-21T00:15:27;17.00;99.90
31309;DHT22;17936;52.446;10.840;2022-08-21T00:17:54;16.90;99.90
31309;DHT22;17936;52.446;10.840;2022-08-21T00:20:21;16.50;99.90
31309;DHT22;17936;52.446;10.840;2022-08-21T00:22:46;16.60;99.90
31309;DHT22;17936;52.446;10.840;2022-08-21T00:25:13;16.80;99.90
31309;DHT22;17936;52.446;10.840;2022-08-21T00:27:40;16.90;99.90
31309;DHT22;17936;52.446;10.840;2022-08-21T00:30:08;17.00;99.90
31309;DHT22;17936;52.446;10.840;2022-08-21T00:32:37;16.50;99.90
31309;DHT22;17936;52.446;10.840;2022-08-21T00:35:04;16.40;99.90
31309;DHT22;17936;52.446;10.840;2022-08-21T00:37:30;16.60;99.90
31309;DHT22;17936;52.446;10.840;2022-08-21T00:39:55;16.20;99.90
31309;DHT22;17936;52.446;10.840;2022-08-21T00:42:21;16.30;99.90
31309;DHT22;17936;52.446;10.840;2022-08-21T00:44:48;16.60;99.90
31309;DHT22;17936;52.446;10.840;2022-08-21T00:47:15;16.60;99.90
31309;DHT22;17936;52.446;10.840;2022-08-21T00:49:41;16.20;99.90
31309;DHT22;17936;52.446;10.840;2022-08-21T00:52:11;15.90;99.90
31309;DHT22;17936;52.446;10.840;2022-08-21T00:54:39;15.80;99.90
31309;DHT22;17936;52.446;10.840;2022-08-21T00:57:13;15.70;99.90
31309;DHT22;17936;52.446;10.840;2022-08-21T00:59:40;16.00;99.90
31309;DHT22;17936;52.446;10.840;2022-08-21T01:02:08;15.70;99.90
31309;DHT22;17936;52.446;10.840;2022-08-21T01:04:34;15.60;99.90
31309;DHT22;17936;52.446;10.840;2022-08-21T01:07:00;15.80;99.90
31309;DHT22;17936;52.446;10.840;2022-08-21T01:09:26;15.50;99.90
31309;DHT22;17936;52.446;10.840;2022-08-21T01:11:52;15.50;99.90
31309;DHT22;17936;52.446;10.840;2022-08-21T01:14:18;15.70;99.90
31309;DHT22;17936;52.446;10.840;2022-08-21T01:16:46;15.70;99.90
31309;DHT22;17936;52.446;10.840;2022-08-21T01:19:13;15.80;99.90
31309;DHT22;17936;52.446;10.840;2022-08-21T01:21:40;15.70;99.90
31309;DHT22;17936;52.446;10.840;2022-08-21T01:24:05;15.30;99.90
31309;DHT22;17936;52.446;10.840;2022-08-21T01:26:33;15.20;99.90
31309;DHT22;17936;52.446;10.840;2022-08-21T01:29:26;15.10;99.90
31309;DHT22;17936;52.446;10.840;2022-08-21T01:31:54;15.10;99.90
31309;DHT22;17936;52.446;10.840;2022-08-21T01:34:19;14.90;99.90
31309;DHT22;17936;52.446;10.840;2022-08-21T01:36:46;15.10;99.90
31309;DHT22;17936;52.446;10.840;2022-08-21T01:39:12;15.50;99.90
31309;DHT22;17936;52.446;10.840;2022-08-21T01:41:38;15.70;99.90
31309;DHT22;17936;52.446;10.840;2022-08-21T01:44:04;15.80;99.90
31309;DHT22;17936;52.446;10.840;2022-08-21T01:46:29;15.80;99.90
31309;DHT22;17936;52.446;10.840;2022-08-21T01:48:55;15.70;99.90
31309;DHT22;17936;52.446;10.840;2022-08-21T01:51:20;15.80;99.90
31309;DHT22;17936;52.446;10.840;2022-08-21T01:53:46;15.60;99.90
31309;DHT22;17936;52.446;10.840;2022-08-21T01:56:15;15.50;99.90
31309;DHT22;17936;52.446;10.840;2022-08-21T01:58:43;15.30;99.90
31309;DHT22;17936;52.446;10.840;2022-08-21T02:01:09;15.10;99.90
31309;DHT22;17936;52.446;10.840;2022-08-21T02:03:35;15.20;99.90
31309;DHT22;17936;52.446;10.840;2022-08-21T02:06:01;15.30;99.90
31309;DHT22;17936;52.446;10.840;2022-08-21T02:08:28;15.40;99.90
31309;DHT22;17936;52.446;10.840;2022-08-21T02:10:54;15.50;99.90
31309;DHT22;17936;52.446;10.840;2022-08-21T02:13:19;15.50;99.90
31309;DHT22;17936;52.446;10.840;2022-08-21T02:15:44;15.40;99.90
31309;DHT22;17936;52.446;10.840;2022-08-21T02:18:10;15.20;99.90
31309;DHT22;17936;52.446;10.840;2022-08-21T02:20:43;15.20;99.90
31309;DHT22;17936;52.446;10.840;2022-08-21T02:23:11;15.10;99.90
31309;DHT22;17936;52.446;10.840;2022-08-21T02:25:37;15.10;99.90
31309;DHT22;17936;52.446;10.840;2022-08-21T02:28:06;15.00;99.90
31309;DHT22;17936;52.446;10.840;2022-08-21T02:30:36;14.50;99.90
31309;DHT22;17936;52.446;10.840;2022-08-21T02:33:03;14.30;99.90
31309;DHT22;17936;52.446;10.840;2022-08-21T02:35:30;14.10;99.90
31309;DHT22;17936;52.446;10.840;2022-08-21T02:37:59;14.30;99.90
31309;DHT22;17936;52.446;10.840;2022-08-21T02:40:28;14.50;99.90
31309;DHT22;17936;52.446;10.840;2022-08-21T02:42:54;14.40;99.90
31309;DHT22;17936;52.446;10.840;2022-08-21T02:45:20;14.30;99.90
31309;DHT22;17936;52.446;10.840;2022-08-21T02:47:50;14.10;99.90
31309;DHT22;17936;52.446;10.840;2022-08-21T02:50:27;14.00;99.90
31309;DHT22;17936;52.446;10.840;2022-08-21T02:52:53;14.00;99.90
31309;DHT22;17936;52.446;10.840;2022-08-21T02:55:21;14.10;99.90
31309;DHT22;17936;52.446;10.840;2022-08-21T02:57:48;14.10;99.90
31309;DHT22;17936;52.446;10.840;2022-08-21T03:00:15;14.00;99.90
31309;DHT22;17936;52.446;10.840;2022-08-21T03:02:40;13.90;99.90
31309;DHT22;17936;52.446;10.840;2022-08-21T03:05:08;14.00;99.90
31309;DHT22;17936;52.446;10.840;2022-08-21T03:07:35;14.40;99.90
31309;DHT22;17936;52.446;10.840;2022-08-21T03:10:01;14.50;99.90
31309;DHT22;17936;52.446;10.840;2022-08-21T03:12:27;14.60;99.90
31309;DHT22;17936;52.446;10.840;2022-08-21T03:14:52;14.60;99.90
31309;DHT22;17936;52.446;10.840;2022-08-21T03:17:18;14.60;99.90
31309;DHT22;17936;52.446;10.840;2022-08-21T03:19:43;14.20;99.90
31309;DHT22;17936;52.446;10.840;2022-08-21T03:22:09;14.20;99.90
31309;DHT22;17936;52.446;10.840;2022-08-21T03:24:34;14.40;99.90
31309;DHT22;17936;52.446;10.840;2022-08-21T03:27:00;14.30;99.90
31309;DHT22;17936;52.446;10.840;2022-08-21T03:29:26;13.80;99.90
31309;DHT22;17936;52.446;10.840;2022-08-21T03:31:52;13.50;99.90
31309;DHT22;17936;52.446;10.840;2022-08-21T03:34:20;13.90;99.90
31309;DHT22;17936;52.446;10.840;2022-08-21T03:36:47;14.10;99.90
31309;DHT22;17936;52.446;10.840;2022-08-21T03:39:14;14.00;99.90
31309;DHT22;17936;52.446;10.840;2022-08-21T03:41:40;13.60;99.90
31309;DHT22;17936;52.446;10.840;2022-08-21T03:44:06;13.70;99.90
31309;DHT22;17936;52.446;10.840;2022-08-21T03:46:31;13.70;99.90
31309;DHT22;17936;52.446;10.840;2022-08-21T03:48:57;14.00;99.90
31309;DHT22;17936;52.446;10.840;2022-08-21T03:51:22;14.10;99.90
31309;DHT22;17936;52.446;10.840;2022-08-21T03:53:48;14.10;99.90
31309;DHT22;17936;52.446;10.840;2022-08-21T03:56:13;14.00;99.90
31309;DHT22;17936;52.446;10.840;2022-08-21T03:58:39;13.50;99.90
31309;DHT22;17936;52.446;10.840;2022-08-21T04:01:06;13.70;99.90
31309;DHT22;17936;52.446;10.840;2022-08-21T04:03:32;13.80;99.90
31309;DHT22;17936;52.446;10.840;2022-08-21T04:05:59;13.50;99.90
31309;DHT22;17936;52.446;10.840;2022-08-21T04:08:24;13.50;99.90
31309;DHT22;17936;52.446;10.840;2022-08-21T04:10:52;13.40;99.90
31309;DHT22;17936;52.446;10.840;2022-08-21T04:13:19;13.20;99.90
31309;DHT22;17936;52.446;10.840;2022-08-21T04:15:45;13.30;99.90
31309;DHT22;17936;52.446;10.840;2022-08-21T04:18:11;13.60;99.90
31309;DHT22;17936;52.446;10.840;2022-08-21T04:20:37;13.80;99.90
31309;DHT22;17936;52.446;10.840;2022-08-21T04:23:03;13.90;99.90
31309;DHT22;17936;52.446;10.840;2022-08-21T04:25:29;13.70;99.90
31309;DHT22;17936;52.446;10.840;2022-08-21T04:27:54;13.90;99.90
31309;DHT22;17936;52.446;10.840;2022-08-21T04:30:21;14.00;99.90
31309;DHT22;17936;52.446;10.840;2022-08-21T04:32:48;14.00;99.90
31309;DHT22;17936;52.446;10.840;2022-08-21T04:35:14;13.80;99.90
31309;DHT22;17936;52.446;10.840;2022-08-21T04:37:41;13.80;99.90
31309;DHT22;17936;52.446;10.840;2022-08-21T04:40:07;13.90;99.90
31309;DHT22;17936;52.446;10.840;2022-08-21T04:42:45;14.00;99.90
31309;DHT22;17936;52.446;10.840;2022-08-21T04:45:17;14.00;99.90
31309;DHT22;17936;52.446;10.840;2022-08-21T04:47:45;13.90;99.90
31309;DHT22;17936;52.446;10.840;2022-08-21T04:50:10;13.80;99.90
31309;DHT22;17936;52.446;10.840;2022-08-21T04:52:36;13.90;99.90
31309;DHT22;17936;52.446;10.840;2022-08-21T04:55:03;14.00;99.90
31309;DHT22;17936;52.446;10.840;2022-08-21T04:57:28;14.00;99.90
31309;DHT22;17936;52.446;10.840;2022-08-21T04:59:54;14.10;99.90
31309;DHT22;17936;52.446;10.840;2022-08-21T05:02:20;14.00;99.90
31309;DHT22;17936;52.446;10.840;2022-08-21T05:04:50;14.20;99.90
31309;DHT22;17936;52.446;10.840;2022-08-21T05:07:20;14.10;99.90
31309;DHT22;17936;52.446;10.840;2022-08-21T05:09:47;14.20;99.90
31309;DHT22;17936;52.446;10.840;2022-08-21T05:12:13;14.30;99.90
31309;DHT22;17936;52.446;10.840;2022-08-21T05:14:39;14.30;99.90
31309;DHT22;17936;52.446;10.840;2022-08-21T05:17:04;14.40;99.90
31309;DHT22;17936;52.446;10.840;2022-08-21T05:19:30;14.50;99.90
31309;DHT22;17936;52.446;10.840;2022-08-21T05:21:56;14.50;99.90
31309;DHT22;17936;52.446;10.840;2022-08-21T05:24:22;14.50;99.90
31309;DHT22;17936;52.446;10.840;2022-08-21T05:26:48;14.70;99.90
31309;DHT22;17936;52.446;10.840;2022-08-21T05:29:15;14.80;99.90
31309;DHT22;17936;52.446;10.840;2022-08-21T05:31:41;15.00;99.90
31309;DHT22;17936;52.446;10.840;2022-08-21T05:34:07;14.90;99.90
31309;DHT22;17936;52.446;10.840;2022-08-21T05:36:33;14.90;99.90
31309;DHT22;17936;52.446;10.840;2022-08-21T05:38:59;14.90;99.90
31309;DHT22;17936;52.446;10.840;2022-08-21T05:41:24;15.00;99.90
31309;DHT22;17936;52.446;10.840;2022-08-21T05:43:50;15.00;99.90
31309;DHT22;17936;52.446;10.840;2022-08-21T05:46:15;15.00;99.90
31309;DHT22;17936;52.446;10.840;2022-08-21T05:48:41;15.00;99.90
31309;DHT22;17936;52.446;10.840;2022-08-21T05:51:13;15.20;99.90
31309;DHT22;17936;52.446;10.840;2022-08-21T05:53:39;15.40;99.90
31309;DHT22;17936;52.446;10.840;2022-08-21T05:56:05;15.50;99.90
31309;DHT22;17936;52.446;10.840;2022-08-21T05:58:32;15.30;99.90
31309;DHT22;17936;52.446;10.840;2022-08-21T06:00:59;15.60;99.90
31309;DHT22;17936;52.446;10.840;2022-08-21T06:03:27;15.60;99.90
31309;DHT22;17936;52.446;10.840;2022-08-21T06:05:54;15.80;99.90
31309;DHT22;17936;52.446;10.840;2022-08-21T06:08:21;16.00;99.90
31309;DHT22;17936;52.446;10.840;2022-08-21T06:10:48;16.40;99.90
31309;DHT22;17936;52.446;10.840;2022-08-21T06:13:15;16.90;93.00
31309;DHT22;17936;52.446;10.840;2022-08-21T06:15:40;17.20;87.30
31309;DHT22;17936;52.446;10.840;2022-08-21T06:18:06;17.40;71.00
31309;DHT22;17936;52.446;10.840;2022-08-21T06:20:32;17.90;60.60
31309;DHT22;17936;52.446;10.840;2022-08-21T06:22:58;18.50;40.30
31309;DHT22;17936;52.446;10.840;2022-08-21T06:25:24;18.80;15.30
31309;DHT22;17936;52.446;10.840;2022-08-21T06:27:50;19.30;1.00
31309;DHT22;17936;52.446;10.840;2022-08-21T06:30:15;19.40;1.00
31309;DHT22;17936;52.446;10.840;2022-08-21T06:32:41;19.90;1.00
31309;DHT22;17936;52.446;10.840;2022-08-21T06:35:07;20.10;99.90
31309;DHT22;17936;52.446;10.840;2022-08-21T06:37:33;19.80;99.90
31309;DHT22;17936;52.446;10.840;2022-08-21T06:39:59;19.90;99.90
31309;DHT22;17936;52.446;10.840;2022-08-21T06:42:24;20.30;99.90
31309;DHT22;17936;52.446;10.840;2022-08-21T06:44:50;20.20;99.90
31309;DHT22;17936;52.446;10.840;2022-08-21T06:47:15;19.80;99.90
31309;DHT22;17936;52.446;10.840;2022-08-21T06:49:41;19.70;99.90
31309;DHT22;17936;52.446;10.840;2022-08-21T06:52:11;19.50;99.90
31309;DHT22;17936;52.446;10.840;2022-08-21T06:54:38;20.30;99.90
31309;DHT22;17936;52.446;10.840;2022-08-21T06:57:04;20.30;99.90
31309;DHT22;17936;52.446;10.840;2022-08-21T06:59:31;20.30;99.90
31309;DHT22;17936;52.446;10.840;2022-08-21T07:01:57;20.00;99.90
31309;DHT22;17936;52.446;10.840;2022-08-21T07:04:23;20.60;99.90
31309;DHT22;17936;52.446;10.840;2022-08-21T07:06:48;20.70;99.90
31309;DHT22;17936;52.446;10.840;2022-08-21T07:09:14;21.40;99.90
31309;DHT22;17936;52.446;10.840;2022-08-21T07:11:40;22.00;99.90
31309;DHT22;17936;52.446;10.840;2022-08-21T07:14:05;22.20;99.90
31309;DHT22;17936;52.446;10.840;2022-08-21T07:16:31;21.80;99.90
31309;DHT22;17936;52.446;10.840;2022-08-21T07:18:56;20.80;99.90
31309;DHT22;17936;52.446;10.840;2022-08-21T07:21:22;20.80;99.90
31309;DHT22;17936;52.446;10.840;2022-08-21T07:23:49;20.70;99.90
31309;DHT22;17936;52.446;10.840;2022-08-21T07:26:19;20.60;99.90
31309;DHT22;17936;52.446;10.840;2022-08-21T07:28:46;20.40;99.90
31309;DHT22;17936;52.446;10.840;2022-08-21T07:31:14;20.70;99.90
31309;DHT22;17936;52.446;10.840;2022-08-21T07:33:41;20.90;99.90
31309;DHT22;17936;52.446;10.840;2022-08-21T07:36:07;21.10;99.90
31309;DHT22;17936;52.446;10.840;2022-08-21T07:38:33;21.90;99.90
31309;DHT22;17936;52.446;10.840;2022-08-21T07:41:00;22.50;99.90
31309;DHT22;17936;52.446;10.840;2022-08-21T07:43:27;21.90;99.90
31309;DHT22;17936;52.446;10.840;2022-08-21T07:45:52;21.90;99.90
31309;DHT22;17936;52.446;10.840;2022-08-21T07:48:22;21.60;99.90
31309;DHT22;17936;52.446;10.840;2022-08-21T07:50:48;21.60;99.90
31309;DHT22;17936;52.446;10.840;2022-08-21T07:53:14;21.70;99.90
31309;DHT22;17936;52.446;10.840;2022-08-21T07:55:40;21.80;99.90
31309;DHT22;17936;52.446;10.840;2022-08-21T07:58:05;21.90;99.90
31309;DHT22;17936;52.446;10.840;2022-08-21T08:00:32;22.00;99.90
31309;DHT22;17936;52.446;10.840;2022-08-21T08:02:57;22.40;99.90
31309;DHT22;17936;52.446;10.840;2022-08-21T08:05:26;22.80;99.90
31309;DHT22;17936;52.446;10.840;2022-08-21T08:07:52;22.30;99.90
31309;DHT22;17936;52.446;10.840;2022-08-21T08:10:18;22.20;99.90
31309;DHT22;17936;52.446;10.840;2022-08-21T08:12:44;22.50;99.90
31309;DHT22;17936;52.446;10.840;2022-08-21T08:15:14;22.80;99.90
31309;DHT22;17936;52.446;10.840;2022-08-21T08:17:40;23.10;99.90
31309;DHT22;17936;52.446;10.840;2022-08-21T08:20:07;23.20;99.90
31309;DHT22;17936;52.446;10.840;2022-08-21T08:22:34;23.10;99.90
31309;DHT22;17936;52.446;10.840;2022-08-21T08:25:00;23.30;99.90
31309;DHT22;17936;52.446;10.840;2022-08-21T08:27:26;24.10;99.90
31309;DHT22;17936;52.446;10.840;2022-08-21T08:29:52;23.30;99.90
31309;DHT22;17936;52.446;10.840;2022-08-21T08:32:18;23.90;99.90
31309;DHT22;17936;52.446;10.840;2022-08-21T08:34:44;24.20;99.90
31309;DHT22;17936;52.446;10.840;2022-08-21T08:37:12;23.70;99.90
31309;DHT22;17936;52.446;10.840;2022-08-21T08:39:37;23.30;99.90
31309;DHT22;17936;52.446;10.840;2022-08-21T08:42:05;23.80;99.90
31309;DHT22;17936;52.446;10.840;2022-08-21T08:44:32;24.50;99.90
31309;DHT22;17936;52.446;10.840;2022-08-21T08:46:59;23.70;99.90
31309;DHT22;17936;52.446;10.840;2022-08-21T08:49:30;24.30;99.90
31309;DHT22;17936;52.446;10.840;2022-08-21T08:52:11;24.10;99.90
31309;DHT22;17936;52.446;10.840;2022-08-21T08:54:49;24.00;99.90
31309;DHT22;17936;52.446;10.840;2022-08-21T08:57:20;23.90;99.90
31309;DHT22;17936;52.446;10.840;2022-08-21T08:59:50;23.70;99.90
31309;DHT22;17936;52.446;10.840;2022-08-21T09:02:18;23.20;99.90
31309;DHT22;17936;52.446;10.840;2022-08-21T09:04:46;23.10;99.90
31309;DHT22;17936;52.446;10.840;2022-08-21T09:07:35;23.10;99.90
31309;DHT22;17936;52.446;10.840;2022-08-21T09:10:12;22.90;99.90
31309;DHT22;17936;52.446;10.840;2022-08-21T09:12:50;23.10;99.90
31309;DHT22;17936;52.446;10.840;2022-08-21T09:15:49;23.00;99.90
31309;DHT22;17936;52.446;10.840;2022-08-21T09:21:11;22.90;99.90
31309;DHT22;17936;52.446;10.840;2022-08-21T09:23:59;23.00;99.90
31309;DHT22;17936;52.446;10.840;2022-08-21T09:26:29;23.10;99.90
31309;DHT22;17936;52.446;10.840;2022-08-21T09:28:59;22.90;99.90
31309;DHT22;17936;52.446;10.840;2022-08-21T09:31:32;22.90;99.90
31309;DHT22;17936;52.446;10.840;2022-08-21T09:34:04;23.00;99.90
31309;DHT22;17936;52.446;10.840;2022-08-21T09:36:41;23.00;99.90
31309;DHT22;17936;52.446;10.840;2022-08-21T09:39:09;23.30;99.90
31309;DHT22;17936;52.446;10.840;2022-08-21T09:41:35;23.30;99.90
31309;DHT22;17936;52.446;10.840;2022-08-21T09:44:02;23.90;99.90
31309;DHT22;17936;52.446;10.840;2022-08-21T09:46:29;24.70;99.90
31309;DHT22;17936;52.446;10.840;2022-08-21T09:48:58;24.80;99.90
31309;DHT22;17936;52.446;10.840;2022-08-21T09:51:27;24.40;99.90
31309;DHT22;17936;52.446;10.840;2022-08-21T09:53:58;24.40;99.90
31309;DHT22;17936;52.446;10.840;2022-08-21T09:56:38;24.60;99.90
31309;DHT22;17936;52.446;10.840;2022-08-21T09:59:30;24.80;99.90
31309;DHT22;17936;52.446;10.840;2022-08-21T10:01:59;24.60;99.90
31309;DHT22;17936;52.446;10.840;2022-08-21T10:04:35;24.30;99.90
31309;DHT22;17936;52.446;10.840;2022-08-21T10:07:09;24.70;99.90
31309;DHT22;17936;52.446;10.840;2022-08-21T10:09:35;25.00;99.90
31309;DHT22;17936;52.446;10.840;2022-08-21T10:12:21;25.70;99.90
31309;DHT22;17936;52.446;10.840;2022-08-21T10:14:58;25.60;99.90
31309;DHT22;17936;52.446;10.840;2022-08-21T10:20:40;26.00;99.90
31309;DHT22;17936;52.446;10.840;2022-08-21T10:23:35;26.20;99.90
31309;DHT22;17936;52.446;10.840;2022-08-21T10:26:09;25.50;99.90
31309;DHT22;17936;52.446;10.840;2022-08-21T10:28:47;25.00;99.90
31309;DHT22;17936;52.446;10.840;2022-08-21T10:31:36;24.90;99.90
31309;DHT22;17936;52.446;10.840;2022-08-21T10:37:18;24.00;99.90
31309;DHT22;17936;52.446;10.840;2022-08-21T10:40:17;25.30;99.90
31309;DHT22;17936;52.446;10.840;2022-08-21T10:48:48;26.50;99.90
31309;DHT22;17936;52.446;10.840;2022-08-21T10:51:28;25.30;99.90
31309;DHT22;17936;52.446;10.840;2022-08-21T10:54:09;24.70;99.90
31309;DHT22;17936;52.446;10.840;2022-08-21T10:56:41;24.40;99.90
31309;DHT22;17936;52.446;10.840;2022-08-21T10:59:38;24.70;99.90
31309;DHT22;17936;52.446;10.840;2022-08-21T11:02:26;24.50;99.90
31309;DHT22;17936;52.446;10.840;2022-08-21T11:07:30;24.70;99.90
31309;DHT22;17936;52.446;10.840;2022-08-21T11:10:03;24.50;99.90
31309;DHT22;17936;52.446;10.840;2022-08-21T11:12:40;25.30;99.90
31309;DHT22;17936;52.446;10.840;2022-08-21T11:15:33;25.70;99.90
31309;DHT22;17936;52.446;10.840;2022-08-21T11:21:26;24.50;99.90
31309;DHT22;17936;52.446;10.840;2022-08-21T11:24:00;24.40;99.90
31309;DHT22;17936;52.446;10.840;2022-08-21T11:29:25;24.80;99.90
31309;DHT22;17936;52.446;10.840;2022-08-21T11:34:50;25.10;99.90
31309;DHT22;17936;52.446;10.840;2022-08-21T11:43:18;24.70;99.90
31309;DHT22;17936;52.446;10.840;2022-08-21T11:45:49;25.30;99.90
31309;DHT22;17936;52.446;10.840;2022-08-21T11:51:00;26.60;97.80
31309;DHT22;17936;52.446;10.840;2022-08-21T11:53:42;26.50;97.70
31309;DHT22;17936;52.446;10.840;2022-08-21T11:56:19;26.50;96.90
31309;DHT22;17936;52.446;10.840;2022-08-21T11:58:51;25.80;97.40
31309;DHT22;17936;52.446;10.840;2022-08-21T12:01:20;26.30;96.70
31309;DHT22;17936;52.446;10.840;2022-08-21T12:03:56;26.60;96.00
31309;DHT22;17936;52.446;10.840;2022-08-21T12:06:32;26.00;95.80
31309;DHT22;17936;52.446;10.840;2022-08-21T12:09:02;26.50;95.90
31309;DHT22;17936;52.446;10.840;2022-08-21T12:11:29;27.00;94.60
31309;DHT22;17936;52.446;10.840;2022-08-21T12:14:16;26.60;94.10
31309;DHT22;17936;52.446;10.840;2022-08-21T12:16:45;26.70;94.20
31309;DHT22;17936;52.446;10.840;2022-08-21T12:19:14;26.60;93.80
31309;DHT22;17936;52.446;10.840;2022-08-21T12:24:43;27.50;93.50
31309;DHT22;17936;52.446;10.840;2022-08-21T12:27:27;28.10;92.40
31309;DHT22;17936;52.446;10.840;2022-08-21T12:30:05;28.00;92.00
31309;DHT22;17936;52.446;10.840;2022-08-21T12:32:42;27.90;91.10
31309;DHT22;17936;52.446;10.840;2022-08-21T12:35:18;27.80;91.80
31309;DHT22;17936;52.446;10.840;2022-08-21T12:37:51;27.50;90.90
31309;DHT22;17936;52.446;10.840;2022-08-21T12:40:30;27.70;91.10
31309;DHT22;17936;52.446;10.840;2022-08-21T12:42:59;27.90;91.20
31309;DHT22;17936;52.446;10.840;2022-08-21T12:45:34;27.30;90.80
31309;DHT22;17936;52.446;10.840;2022-08-21T12:48:23;26.80;91.50
31309;DHT22;17936;52.446;10.840;2022-08-21T12:50:55;26.10;91.40
31309;DHT22;17936;52.446;10.840;2022-08-21T12:53:47;26.70;91.80
31309;DHT22;17936;52.446;10.840;2022-08-21T12:56:16;27.50;90.90
31309;DHT22;17936;52.446;10.840;2022-08-21T12:58:48;27.50;90.70
31309;DHT22;17936;52.446;10.840;2022-08-21T13:01:24;26.70;90.80
31309;DHT22;17936;52.446;10.840;2022-08-21T13:03:54;26.90;90.40
31309;DHT22;17936;52.446;10.840;2022-08-21T13:06:22;27.70;90.30
31309;DHT22;17936;52.446;10.840;2022-08-21T13:08:58;28.10;88.80
31309;DHT22;17936;52.446;10.840;2022-08-21T13:11:29;28.20;83.90
31309;DHT22;17936;52.446;10.840;2022-08-21T13:13:56;27.80;83.10
31309;DHT22;17936;52.446;10.840;2022-08-21T13:16:27;28.00;83.60
31309;DHT22;17936;52.446;10.840;2022-08-21T13:19:07;28.10;84.30
31309;DHT22;17936;52.446;10.840;2022-08-21T13:21:42;28.00;84.40
31309;DHT22;17936;52.446;10.840;2022-08-21T13:24:26;27.80;84.40
31309;DHT22;17936;52.446;10.840;2022-08-21T13:26:53;28.20;83.10
31309;DHT22;17936;52.446;10.840;2022-08-21T13:29:21;27.30;86.10
31309;DHT22;17936;52.446;10.840;2022-08-21T13:31:49;26.80;86.60
31309;DHT22;17936;52.446;10.840;2022-08-21T13:34:19;26.30;87.10
31309;DHT22;17936;52.446;10.840;2022-08-21T13:36:45;26.10;87.00
31309;DHT22;17936;52.446;10.840;2022-08-21T13:39:15;26.10;87.80
31309;DHT22;17936;52.446;10.840;2022-08-21T13:41:44;26.00;87.80
31309;DHT22;17936;52.446;10.840;2022-08-21T13:44:22;26.90;86.10
31309;DHT22;17936;52.446;10.840;2022-08-21T13:46:52;27.30;83.30
31309;DHT22;17936;52.446;10.840;2022-08-21T13:49:20;27.20;83.10
31309;DHT22;17936;52.446;10.840;2022-08-21T13:51:46;27.00;83.10
31309;DHT22;17936;52.446;10.840;2022-08-21T13:54:24;27.10;82.30
31309;DHT22;17936;52.446;10.840;2022-08-21T13:56:50;27.10;80.70
31309;DHT22;17936;52.446;10.840;2022-08-21T13:59:35;27.20;82.70
31309;DHT22;17936;52.446;10.840;2022-08-21T14:02:10;27.70;83.10
31309;DHT22;17936;52.446;10.840;2022-08-21T14:05:00;27.30;82.10
31309;DHT22;17936;52.446;10.840;2022-08-21T14:07:31;27.40;81.70
31309;DHT22;17936;52.446;10.840;2022-08-21T14:10:05;27.20;81.70
31309;DHT22;17936;52.446;10.840;2022-08-21T14:12:48;27.60;82.10
31309;DHT22;17936;52.446;10.840;2022-08-21T14:15:17;27.20;81.30
31309;DHT22;17936;52.446;10.840;2022-08-21T14:17:43;26.80;82.00
31309;DHT22;17936;52.446;10.840;2022-08-21T14:20:33;27.10;82.40
31309;DHT22;17936;52.446;10.840;2022-08-21T14:22:59;26.50;83.00
31309;DHT22;17936;52.446;10.840;2022-08-21T14:27:56;26.10;84.40
31309;DHT22;17936;52.446;10.840;2022-08-21T14:30:33;26.00;84.60
31309;DHT22;17936;52.446;10.840;2022-08-21T14:32:59;25.90;83.00
31309;DHT22;17936;52.446;10.840;2022-08-21T14:35:25;26.50;83.00
31309;DHT22;17936;52.446;10.840;2022-08-21T14:37:51;26.70;81.20
31309;DHT22;17936;52.446;10.840;2022-08-21T14:40:20;26.80;83.60
31309;DHT22;17936;52.446;10.840;2022-08-21T14:42:46;27.00;81.20
31309;DHT22;17936;52.446;10.840;2022-08-21T14:45:25;27.50;83.20
31309;DHT22;17936;52.446;10.840;2022-08-21T14:47:52;27.90;81.10
31309;DHT22;17936;52.446;10.840;2022-08-21T14:50:17;27.80;78.10
31309;DHT22;17936;52.446;10.840;2022-08-21T14:52:43;27.30;77.90
31309;DHT22;17936;52.446;10.840;2022-08-21T14:55:11;26.80;80.80
31309;DHT22;17936;52.446;10.840;2022-08-21T14:57:40;26.80;81.10
31309;DHT22;17936;52.446;10.840;2022-08-21T15:00:09;26.70;82.80
31309;DHT22;17936;52.446;10.840;2022-08-21T15:02:35;26.60;82.40
31309;DHT22;17936;52.446;10.840;2022-08-21T15:05:01;26.30;81.10
31309;DHT22;17936;52.446;10.840;2022-08-21T15:07:26;26.00;82.00
31309;DHT22;17936;52.446;10.840;2022-08-21T15:09:52;26.30;83.10
31309;DHT22;17936;52.446;10.840;2022-08-21T15:12:17;26.50;82.50
31309;DHT22;17936;52.446;10.840;2022-08-21T15:14:43;26.70;83.00
31309;DHT22;17936;52.446;10.840;2022-08-21T15:17:10;26.50;82.70
31309;DHT22;17936;52.446;10.840;2022-08-21T15:19:36;27.10;82.50
31309;DHT22;17936;52.446;10.840;2022-08-21T15:22:02;27.10;81.90
31309;DHT22;17936;52.446;10.840;2022-08-21T15:24:28;26.80;80.20
31309;DHT22;17936;52.446;10.840;2022-08-21T15:26:54;26.10;81.80
31309;DHT22;17936;52.446;10.840;2022-08-21T15:29:20;26.50;82.00
31309;DHT22;17936;52.446;10.840;2022-08-21T15:31:52;26.50;82.40
31309;DHT22;17936;52.446;10.840;2022-08-21T15:34:19;26.10;82.10
31309;DHT22;17936;52.446;10.840;2022-08-21T15:36:44;26.10;82.90
31309;DHT22;17936;52.446;10.840;2022-08-21T15:39:10;25.90;82.50
31309;DHT22;17936;52.446;10.840;2022-08-21T15:41:35;26.10;80.70
31309;DHT22;17936;52.446;10.840;2022-08-21T15:44:01;26.60;81.60
31309;DHT22;17936;52.446;10.840;2022-08-21T15:46:26;26.90;80.70
31309;DHT22;17936;52.446;10.840;2022-08-21T15:48:52;26.90;80.60
31309;DHT22;17936;52.446;10.840;2022-08-21T15:51:18;26.80;81.10
31309;DHT22;17936;52.446;10.840;2022-08-21T15:53:44;26.70;79.70
31309;DHT22;17936;52.446;10.840;2022-08-21T15:56:21;27.00;80.70
31309;DHT22;17936;52.446;10.840;2022-08-21T15:58:49;26.80;78.90
31309;DHT22;17936;52.446;10.840;2022-08-21T16:01:15;27.10;79.40
31309;DHT22;17936;52.446;10.840;2022-08-21T16:03:42;27.00;79.40
31309;DHT22;17936;52.446;10.840;2022-08-21T16:06:09;27.10;79.50
31309;DHT22;17936;52.446;10.840;2022-08-21T16:08:34;27.10;78.40